KAWG

Washington Municipal Airport

Washington, Iowa, USA
METAR KAWG 211515Z AUTO 11006KT 10SM CLR 10/M02 A3041 RMK AO2
Observed Flight Rules
Apr-21 @ 15:15 UTC (24 minutes ago) Visual Flight Rules
Wind Visibility Clouds
110° at 6 knots 10 miles
  • Clear skies
Temperatures Readings
Current 10°C / 50°F
Dewpoint -2°C / 28°F
Humidity 43%
Altimeter 30.41" Hg
Pressure 1030 hPa
Elevation 230
METAR KAWG 211515Z AUTO 11006KT 10SM CLR 10/M02 A3041 RMK AO2
Observed Flight Rules
Apr-21 @ 15:15 UTC
(24 minutes ago)
VFR
Wind Visibility
110° at 6 knots 10 miles
Clouds
  • Clear skies
Temperature Dewpoint
10°C / 50°F -2°C / 28°F
Humidity Altimeter Pressure
43% 30.41" Hg 1030 hPa